Time;durP1;ratioP1;P1;durP2;ratioP2;P2;SDS_P1;SDS_P2;PMS_P1;PMS_P2;Temp;Humidity;BMP_temperature;BMP_pressure;BME280_temperature;BME280_humidity;BME280_pressure;Samples;Min_cycle;Max_cycle;Signal;HPM_P1;HPM_P2
2022/11/04 00:01:32;;;;;;;2.95;1.35;;;15.50;74.50;;;;;;2200314;56;21020;-73
2022/11/04 00:04:01;;;;;;;2.53;1.12;;;15.50;74.40;;;;;;2247348;56;20966;-73
2022/11/04 00:06:28;;;;;;;2.35;0.80;;;15.50;74.40;;;;;;2460549;54;20979;-74
2022/11/04 00:08:55;;;;;;;2.92;1.10;;;15.50;74.30;;;;;;2290161;54;21053;-75
2022/11/04 00:18:06;;;;;;;3.05;1.17;;;15.40;74.00;;;;;;2246797;55;21302;-73
2022/11/04 00:28:51;;;;;;;1.12;0.50;;;15.30;74.00;;;;;;2261920;55;21014;-73
2022/11/04 00:34:02;;;;;;;1.77;0.50;;;15.30;74.10;;;;;;2296368;56;21060;-74
2022/11/04 00:36:28;;;;;;;1.85;0.62;;;15.20;74.10;;;;;;2301478;54;20986;-74
2022/11/04 00:38:55;;;;;;;1.67;0.60;;;15.20;74.10;;;;;;2229738;56;20957;-74
2022/11/04 00:41:28;;;;;;;2.20;0.80;;;15.20;74.20;;;;;;2446055;55;20964;-73
2022/11/04 00:43:57;;;;;;;1.55;0.68;;;15.20;74.20;;;;;;2467770;55;21759;-73
2022/11/04 00:46:23;;;;;;;1.60;0.62;;;15.20;74.20;;;;;;2455712;56;21833;-76
2022/11/04 00:48:50;;;;;;;1.87;0.62;;;15.20;74.20;;;;;;2237980;56;21068;-73
2022/11/04 00:51:20;;;;;;;2.42;0.60;;;15.20;74.30;;;;;;2293565;56;21573;-73
2022/11/04 00:53:47;;;;;;;1.75;0.70;;;15.20;74.30;;;;;;2235001;56;20933;-73
2022/11/04 00:56:13;;;;;;;1.73;0.70;;;15.10;74.20;;;;;;2330820;56;21143;-73
2022/11/04 00:58:40;;;;;;;2.45;0.70;;;15.10;74.30;;;;;;2257942;56;20968;-73
2022/11/04 01:01:10;;;;;;;1.98;0.77;;;15.10;74.30;;;;;;2253108;56;20984;-73
2022/11/04 01:03:37;;;;;;;2.37;0.50;;;15.10;74.30;;;;;;2298251;55;21489;-73
2022/11/04 01:06:04;;;;;;;2.62;0.80;;;15.10;74.30;;;;;;2247039;56;21028;-73
2022/11/04 01:08:31;;;;;;;1.90;0.70;;;15.10;74.30;;;;;;2241782;56;21409;-73
2022/11/04 01:11:03;;;;;;;1.77;0.70;;;15.10;74.30;;;;;;2438284;55;21829;-75
2022/11/04 01:13:29;;;;;;;1.73;0.80;;;15.10;74.20;;;;;;2308450;56;21805;-73
2022/11/04 01:15:59;;;;;;;1.37;0.60;;;15.10;74.20;;;;;;2236790;56;21185;-73
2022/11/04 01:18:26;;;;;;;1.35;0.60;;;15.10;74.20;;;;;;2248701;56;20975;-75
2022/11/04 01:20:52;;;;;;;1.27;0.60;;;15.10;74.20;;;;;;2233913;56;21021;-76
2022/11/04 01:23:19;;;;;;;1.75;0.75;;;15.10;74.30;;;;;;2240476;56;21838;-75
2022/11/04 01:25:45;;;;;;;1.80;0.60;;;15.00;74.10;;;;;;2293108;55;21031;-75
2022/11/04 01:28:12;;;;;;;2.10;0.80;;;15.00;74.20;;;;;;2296411;55;21529;-75
2022/11/04 01:30:38;;;;;;;1.27;0.60;;;15.00;74.20;;;;;;2249011;56;21025;-73
2022/11/04 01:33:05;;;;;;;1.27;0.50;;;15.00;74.20;;;;;;2235029;57;21101;-73
2022/11/04 01:35:31;;;;;;;1.67;0.68;;;15.00;74.30;;;;;;2247437;56;20968;-73
2022/11/04 01:37:58;;;;;;;0.90;0.40;;;15.00;74.30;;;;;;2460544;55;21040;-73
2022/11/04 01:40:24;;;;;;;2.97;0.50;;;15.00;74.30;;;;;;2236228;57;20969;-74
2022/11/04 01:42:51;;;;;;;2.00;0.60;;;15.00;74.40;;;;;;2240037;56;21011;-74
2022/11/04 01:45:18;;;;;;;2.22;0.60;;;15.00;74.30;;;;;;2249477;56;21076;-75
2022/11/04 01:47:56;;;;;;;1.05;0.47;;;15.00;75.00;;;;;;2237301;56;20944;-73
2022/11/04 01:50:25;;;;;;;1.50;0.43;;;15.00;74.20;;;;;;2312921;56;20993;-75
2022/11/04 01:53:12;;;;;;;1.50;0.50;;;15.00;74.20;;;;;;2245197;56;20988;-75
2022/11/04 01:55:53;;;;;;;1.95;0.43;;;14.90;73.60;;;;;;2236707;56;21048;-75
2022/11/04 01:58:20;;;;;;;1.95;0.60;;;14.90;73.70;;;;;;2318672;56;21341;-75
2022/11/04 02:00:47;;;;;;;1.30;0.45;;;14.90;73.90;;;;;;2237377;56;20931;-75
2022/11/04 02:03:30;;;;;;;1.42;0.60;;;14.90;73.80;;;;;;2245981;56;21027;-75
2022/11/04 02:05:56;;;;;;;1.62;0.60;;;14.90;73.50;;;;;;2251695;56;21053;-75
2022/11/04 02:08:23;;;;;;;0.82;0.40;;;14.80;73.70;;;;;;2240498;56;21376;-75
2022/11/04 02:10:58;;;;;;;1.65;0.57;;;14.80;73.70;;;;;;2238840;56;20989;-74
2022/11/04 02:13:25;;;;;;;1.55;0.60;;;14.80;73.60;;;;;;2267488;56;20935;-74
2022/11/04 02:16:06;;;;;;;1.73;0.68;;;14.80;73.70;;;;;;2238176;56;21039;-75
2022/11/04 02:19:29;;;;;;;1.35;0.50;;;14.70;73.60;;;;;;2243314;56;20955;-75
2022/11/04 02:25:45;;;;;;;2.20;0.60;;;14.80;73.20;;;;;;2244602;56;20952;-75
2022/11/04 02:35:20;;;;;;;1.12;0.40;;;14.70;73.30;;;;;;2438416;55;21572;-75
2022/11/04 02:38:16;;;;;;;0.57;0.28;;;14.70;73.00;;;;;;2245352;56;20937;-75
2022/11/04 02:41:06;;;;;;;1.52;0.32;;;14.60;73.20;;;;;;2245687;56;20983;-75
2022/11/04 02:44:07;;;;;;;0.80;0.30;;;14.50;73.50;;;;;;2249298;56;21854;-75
2022/11/04 02:48:01;;;;;;;0.98;0.40;;;14.50;73.50;;;;;;2249470;56;20976;-74
2022/11/04 02:52:07;;;;;;;1.27;0.40;;;14.50;73.10;;;;;;2250324;56;21003;-76
2022/11/04 02:54:44;;;;;;;0.82;0.40;;;14.50;72.90;;;;;;2250275;56;21021;-75
2022/11/04 02:57:12;;;;;;;0.75;0.30;;;14.40;73.60;;;;;;2243831;56;20920;-75
2022/11/04 03:03:11;;;;;;;0.30;0.20;;;14.40;73.60;;;;;;2238641;56;21830;-75
2022/11/04 03:05:38;;;;;;;2.05;0.50;;;14.40;73.70;;;;;;2243710;56;20980;-75
2022/11/04 03:08:08;;;;;;;1.12;0.40;;;14.40;73.60;;;;;;2233905;57;21061;-75
2022/11/04 03:10:44;;;;;;;1.30;0.40;;;14.40;73.60;;;;;;2252201;56;21513;-75
2022/11/04 03:13:15;;;;;;;1.20;0.40;;;14.30;73.30;;;;;;2301895;55;21531;-75
2022/11/04 03:15:56;;;;;;;1.07;0.40;;;14.30;73.40;;;;;;2250515;56;21023;-75
2022/11/04 03:18:50;;;;;;;1.60;0.40;;;14.30;73.40;;;;;;2454430;55;21005;-75
2022/11/04 03:21:16;;;;;;;1.15;0.40;;;14.30;73.30;;;;;;2233260;56;21265;-75
2022/11/04 03:23:44;;;;;;;1.05;0.30;;;14.30;73.50;;;;;;2231357;56;20936;-74
2022/11/04 03:26:31;;;;;;;0.75;0.40;;;14.20;73.50;;;;;;2244239;56;21036;-76
2022/11/04 03:32:46;;;;;;;0.98;0.40;;;14.20;73.10;;;;;;2246370;56;20905;-75
2022/11/04 03:35:13;;;;;;;1.67;0.40;;;14.10;73.50;;;;;;2243551;56;21600;-75
2022/11/04 03:37:39;;;;;;;0.60;0.30;;;14.10;73.30;;;;;;2453400;56;21003;-76
2022/11/04 03:40:06;;;;;;;1.62;0.50;;;14.10;73.30;;;;;;2455279;56;21561;-75
2022/11/04 03:42:35;;;;;;;0.52;0.20;;;14.10;73.40;;;;;;2238119;56;21036;-74
2022/11/04 03:45:01;;;;;;;1.33;0.40;;;14.00;73.30;;;;;;2273857;55;21449;-75
2022/11/04 03:47:28;;;;;;;1.12;0.45;;;14.00;73.30;;;;;;2250030;56;20996;-74
2022/11/04 03:50:07;;;;;;;1.40;0.40;;;13.90;73.20;;;;;;2376804;55;20951;-75
2022/11/04 03:52:33;;;;;;;1.33;0.32;;;14.00;73.40;;;;;;2249433;56;21048;-74
2022/11/04 03:55:00;;;;;;;1.40;0.43;;;13.90;73.30;;;;;;2244679;56;21017;-75
2022/11/04 03:58:07;;;;;;;1.27;0.47;;;13.90;73.30;;;;;;2243194;56;21373;-75
2022/11/04 04:00:38;;;;;;;2.40;0.50;;;13.90;72.70;;;;;;2237666;56;20989;-75
2022/11/04 04:03:54;;;;;;;1.12;0.47;;;13.90;73.30;;;;;;2396096;56;20966;-74
2022/11/04 04:06:25;;;;;;;1.23;0.35;;;13.90;72.70;;;;;;2246957;56;21064;-74
2022/11/04 04:08:56;;;;;;;1.33;0.40;;;13.80;73.20;;;;;;2380501;56;21084;-74
2022/11/04 04:12:58;;;;;;;1.00;0.40;;;13.80;73.10;;;;;;2245865;56;21087;-75
2022/11/04 04:15:27;;;;;;;0.80;0.40;;;13.80;72.50;;;;;;2277227;56;21480;-74
2022/11/04 04:18:07;;;;;;;0.65;0.40;;;13.80;73.20;;;;;;2235304;56;21036;-74
2022/11/04 04:20:34;;;;;;;1.30;0.40;;;13.80;73.00;;;;;;2234917;56;20976;-75
2022/11/04 04:28:36;;;;;;;0.70;0.32;;;13.70;73.30;;;;;;2242557;56;20937;-75
2022/11/04 04:31:03;;;;;;;1.65;0.60;;;13.70;73.30;;;;;;2244052;56;20957;-74
2022/11/04 04:33:29;;;;;;;0.88;0.50;;;13.60;73.30;;;;;;2246075;56;21024;-75
2022/11/04 04:35:56;;;;;;;1.33;0.57;;;13.60;73.30;;;;;;2241107;56;21003;-74
2022/11/04 04:47:05;;;;;;;1.25;0.43;;;13.60;73.40;;;;;;2232326;57;20981;-75
2022/11/04 04:49:33;;;;;;;1.42;0.40;;;13.60;73.50;;;;;;2244543;56;21625;-75
2022/11/04 04:52:05;;;;;;;0.95;0.40;;;13.50;73.50;;;;;;2247541;56;21860;-75
2022/11/04 04:54:32;;;;;;;1.27;0.47;;;13.50;73.40;;;;;;2240018;56;21068;-75
2022/11/04 04:56:58;;;;;;;1.83;0.60;;;13.50;73.50;;;;;;2242980;56;20936;-75
2022/11/04 04:59:25;;;;;;;1.25;0.50;;;13.50;73.60;;;;;;2435629;55;21335;-75
2022/11/04 05:01:51;;;;;;;1.62;0.47;;;13.50;73.60;;;;;;2236685;56;21047;-74
2022/11/04 05:04:17;;;;;;;3.60;0.80;;;13.50;73.70;;;;;;2233846;56;20949;-75
2022/11/04 05:06:45;;;;;;;2.00;0.60;;;13.50;73.60;;;;;;2246229;56;21568;-74
2022/11/04 05:09:12;;;;;;;1.65;0.40;;;13.50;73.60;;;;;;2376808;55;20996;-77
2022/11/04 05:11:38;;;;;;;1.73;0.50;;;13.50;73.60;;;;;;2370973;56;20989;-75
2022/11/04 05:14:05;;;;;;;2.75;0.52;;;13.50;73.70;;;;;;2237746;56;21012;-75
2022/11/04 05:16:31;;;;;;;1.65;0.50;;;13.50;73.70;;;;;;2237782;56;20928;-75
2022/11/04 05:19:00;;;;;;;2.08;0.62;;;13.50;73.70;;;;;;2311219;55;21068;-75
2022/11/04 05:21:26;;;;;;;1.85;0.50;;;13.50;73.70;;;;;;2329717;56;20936;-75
2022/11/04 05:23:52;;;;;;;3.33;0.68;;;13.50;73.70;;;;;;2241215;56;21312;-75
2022/11/04 05:26:19;;;;;;;2.83;0.60;;;13.40;73.50;;;;;;2239772;56;20988;-74
2022/11/04 05:28:45;;;;;;;2.12;0.50;;;13.40;73.40;;;;;;2245337;56;21004;-75
2022/11/04 05:31:12;;;;;;;1.62;0.50;;;13.40;73.50;;;;;;2246234;56;21457;-76
2022/11/04 05:33:39;;;;;;;1.67;0.68;;;13.40;73.50;;;;;;2244785;56;20976;-75
2022/11/04 05:36:12;;;;;;;1.73;0.65;;;13.40;73.50;;;;;;2362866;56;21108;-76
2022/11/04 05:38:38;;;;;;;2.37;0.60;;;13.40;73.30;;;;;;2232874;56;21004;-75
2022/11/04 05:41:05;;;;;;;0.88;0.40;;;13.40;73.50;;;;;;2249710;56;21008;-76
2022/11/04 05:43:32;;;;;;;2.22;0.40;;;13.40;73.50;;;;;;2239026;56;20973;-76
2022/11/04 05:45:59;;;;;;;1.35;0.55;;;13.40;73.40;;;;;;2243643;56;21399;-75
2022/11/04 05:48:25;;;;;;;1.17;0.30;;;13.40;73.40;;;;;;2259837;55;20981;-74
2022/11/04 05:50:52;;;;;;;1.37;0.50;;;13.40;73.50;;;;;;2243876;56;20964;-76
2022/11/04 05:53:18;;;;;;;2.22;0.50;;;13.40;73.50;;;;;;2250111;56;21474;-76
2022/11/04 05:55:44;;;;;;;2.67;0.60;;;13.40;73.50;;;;;;2237334;56;20960;-74
2022/11/04 05:58:11;;;;;;;2.33;0.50;;;13.40;73.50;;;;;;2349536;55;20933;-75
2022/11/04 06:00:38;;;;;;;1.62;0.40;;;13.40;73.60;;;;;;2315169;55;21037;-75
2022/11/04 06:03:04;;;;;;;1.17;0.50;;;13.30;73.50;;;;;;2256582;56;21708;-76
2022/11/04 06:05:31;;;;;;;2.33;0.57;;;13.40;73.60;;;;;;2275464;56;21023;-76
2022/11/04 06:07:57;;;;;;;3.08;0.65;;;13.30;73.60;;;;;;2278993;56;21352;-77
2022/11/04 06:10:23;;;;;;;2.10;0.50;;;13.40;73.60;;;;;;2296782;56;21004;-75
2022/11/04 06:12:49;;;;;;;0.85;0.47;;;13.30;73.60;;;;;;2441276;55;21118;-76
2022/11/04 06:15:16;;;;;;;1.80;0.43;;;13.30;73.60;;;;;;2232729;56;21235;-74
2022/11/04 06:17:42;;;;;;;3.15;0.50;;;13.30;73.60;;;;;;2234475;56;21457;-77
2022/11/04 06:20:09;;;;;;;2.40;0.57;;;13.30;73.60;;;;;;2245451;56;21186;-75
2022/11/04 06:22:35;;;;;;;1.90;0.50;;;13.30;73.60;;;;;;2240426;56;20981;-75
2022/11/04 06:25:02;;;;;;;2.22;0.50;;;13.30;73.60;;;;;;2239941;56;20988;-75
2022/11/04 06:27:29;;;;;;;0.77;0.40;;;13.40;73.70;;;;;;2238964;56;21560;-75
2022/11/04 06:29:55;;;;;;;2.10;0.45;;;13.30;73.60;;;;;;2295845;55;21525;-77
2022/11/04 06:32:21;;;;;;;4.72;0.62;;;13.30;73.60;;;;;;2250495;56;20933;-75
2022/11/04 06:34:48;;;;;;;2.10;0.47;;;13.40;73.60;;;;;;2249047;56;21083;-76
2022/11/04 06:37:14;;;;;;;2.42;0.50;;;13.30;73.50;;;;;;2245427;56;21063;-74
2022/11/04 06:39:41;;;;;;;1.67;0.50;;;13.30;73.40;;;;;;2246293;56;21067;-75
2022/11/04 06:42:07;;;;;;;1.30;0.43;;;13.30;73.40;;;;;;2304371;56;21257;-74
2022/11/04 06:44:34;;;;;;;1.60;0.37;;;13.30;73.40;;;;;;2343320;56;21055;-75
2022/11/04 06:47:00;;;;;;;2.12;0.77;;;13.30;73.40;;;;;;2243024;56;21065;-75
2022/11/04 06:49:26;;;;;;;3.35;0.50;;;13.30;73.40;;;;;;2237972;56;20965;-75
2022/11/04 06:51:53;;;;;;;3.60;0.47;;;13.30;73.40;;;;;;2269759;56;21352;-75
2022/11/04 06:54:19;;;;;;;1.27;0.47;;;13.30;74.20;;;;;;2237585;56;20988;-76
2022/11/04 06:56:46;;;;;;;1.45;0.50;;;13.30;73.50;;;;;;2461480;55;21007;-75
2022/11/04 06:59:17;;;;;;;2.22;0.40;;;13.30;73.50;;;;;;2355461;55;21602;-76
2022/11/04 07:01:44;;;;;;;2.23;0.50;;;13.30;73.30;;;;;;2253765;56;21031;-74
2022/11/04 07:04:10;;;;;;;2.78;0.52;;;13.30;73.50;;;;;;2240757;56;21434;-75
2022/11/04 07:06:37;;;;;;;2.72;0.60;;;13.30;73.60;;;;;;2234507;56;20981;-76
2022/11/04 07:09:04;;;;;;;2.17;0.50;;;13.30;74.20;;;;;;2296714;56;20989;-76
2022/11/04 07:11:31;;;;;;;1.85;0.68;;;13.30;73.60;;;;;;2262001;56;20957;-75
2022/11/04 07:13:57;;;;;;;3.37;0.80;;;13.30;73.70;;;;;;2245975;56;21061;-77
2022/11/04 07:16:24;;;;;;;2.25;0.68;;;13.30;73.60;;;;;;2275389;56;21390;-75
2022/11/04 07:18:52;;;;;;;3.08;0.80;;;13.40;73.80;;;;;;2249275;56;21370;-75
2022/11/04 07:21:19;;;;;;;2.25;1.05;;;13.30;73.70;;;;;;2244509;56;21437;-75
2022/11/04 07:23:46;;;;;;;4.28;1.50;;;13.40;73.90;;;;;;2323124;55;21550;-76
2022/11/04 07:26:13;;;;;;;5.50;3.05;;;13.40;73.80;;;;;;2367518;55;20972;-75
2022/11/04 07:28:39;;;;;;;5.85;2.87;;;13.40;73.80;;;;;;2270698;55;21046;-76
2022/11/04 07:31:06;;;;;;;3.83;1.70;;;13.40;73.80;;;;;;2246972;56;21381;-76
2022/11/04 07:33:33;;;;;;;6.35;1.90;;;13.40;73.80;;;;;;2249183;56;21044;-76
2022/11/04 07:36:07;;;;;;;3.65;1.23;;;13.40;73.70;;;;;;2319473;55;20982;-76
2022/11/04 07:38:33;;;;;;;2.35;1.12;;;13.40;73.40;;;;;;2351480;55;21041;-76
2022/11/04 07:41:01;;;;;;;3.25;0.95;;;13.50;73.80;;;;;;2242705;56;21076;-76
2022/11/04 07:43:28;;;;;;;6.87;2.83;;;13.50;73.80;;;;;;2462182;55;21112;-76
2022/11/04 07:46:03;;;;;;;5.20;2.22;;;13.50;73.80;;;;;;2319146;55;21933;-76
2022/11/04 07:48:29;;;;;;;3.53;1.60;;;13.50;73.60;;;;;;2362686;55;20979;-76
2022/11/04 07:50:58;;;;;;;3.80;1.20;;;13.50;73.70;;;;;;2238385;56;20944;-77
2022/11/04 07:53:28;;;;;;;2.45;0.90;;;13.60;73.80;;;;;;2378231;55;21363;-74
2022/11/04 07:55:55;;;;;;;3.22;0.98;;;13.60;73.80;;;;;;2232482;56;21262;-77
2022/11/04 07:58:21;;;;;;;3.50;0.73;;;13.60;73.80;;;;;;2474883;55;20916;-76
2022/11/04 08:00:48;;;;;;;4.07;1.00;;;13.60;73.80;;;;;;2252106;56;20947;-75
2022/11/04 08:03:14;;;;;;;2.22;0.57;;;13.60;73.80;;;;;;2482015;55;21009;-75
2022/11/04 08:05:41;;;;;;;2.65;0.80;;;13.60;73.80;;;;;;2252450;55;20994;-77
2022/11/04 08:08:07;;;;;;;1.77;0.50;;;13.60;73.70;;;;;;2478524;55;21706;-76
2022/11/04 08:10:33;;;;;;;4.85;0.98;;;13.70;73.70;;;;;;2240689;56;21515;-76
2022/11/04 08:13:00;;;;;;;3.90;0.43;;;13.70;73.70;;;;;;2304659;55;20973;-76
2022/11/04 08:15:28;;;;;;;3.00;0.70;;;13.70;73.70;;;;;;2326463;55;20946;-76
2022/11/04 08:17:54;;;;;;;2.37;0.50;;;13.70;73.80;;;;;;2268946;55;20983;-77
2022/11/04 08:20:21;;;;;;;1.67;0.70;;;13.80;73.80;;;;;;2257064;55;21424;-75
2022/11/04 08:22:47;;;;;;;1.62;0.50;;;13.80;73.90;;;;;;2351031;55;21333;-75
2022/11/04 08:25:14;;;;;;;1.35;0.52;;;13.80;73.80;;;;;;2314901;55;21070;-75
2022/11/04 08:27:40;;;;;;;4.82;0.90;;;13.80;73.80;;;;;;2379480;54;21026;-76
2022/11/04 08:30:09;;;;;;;3.53;0.80;;;13.90;74.00;;;;;;2351311;55;20940;-75
2022/11/04 08:32:35;;;;;;;2.30;0.62;;;13.90;73.90;;;;;;2415649;54;21366;-75
2022/11/04 08:35:02;;;;;;;4.30;0.82;;;13.90;73.90;;;;;;2269935;55;20981;-75
2022/11/04 08:37:29;;;;;;;3.40;1.15;;;14.00;73.80;;;;;;2316158;55;21474;-76
2022/11/04 08:39:56;;;;;;;6.20;1.80;;;14.00;73.80;;;;;;2246786;56;20980;-74
2022/11/04 08:42:22;;;;;;;3.47;1.33;;;14.00;73.80;;;;;;2487931;55;21816;-75
2022/11/04 08:44:51;;;;;;;3.45;1.35;;;14.00;73.70;;;;;;2276521;55;20994;-75
2022/11/04 08:47:18;;;;;;;3.60;1.37;;;14.00;73.60;;;;;;2261742;56;21340;-75
2022/11/04 08:49:44;;;;;;;4.20;1.50;;;14.10;73.80;;;;;;2382836;55;20990;-75
2022/11/04 08:52:10;;;;;;;3.92;1.20;;;14.10;73.80;;;;;;2304536;55;21493;-76
2022/11/04 08:54:37;;;;;;;4.70;1.80;;;14.10;73.80;;;;;;2507810;55;21061;-75
2022/11/04 08:57:04;;;;;;;6.40;1.60;;;14.10;73.70;;;;;;2489234;55;20946;-76
2022/11/04 08:59:31;;;;;;;3.37;1.08;;;14.20;73.80;;;;;;2332311;55;21009;-76
2022/11/04 09:01:57;;;;;;;2.75;0.80;;;14.20;73.80;;;;;;2357367;55;20958;-75
2022/11/04 09:04:24;;;;;;;2.87;0.70;;;14.30;73.90;;;;;;2279426;56;20970;-76
2022/11/04 09:06:51;;;;;;;3.37;0.75;;;14.20;73.60;;;;;;2422777;55;21546;-75
2022/11/04 09:09:18;;;;;;;3.80;0.80;;;14.30;73.80;;;;;;2274515;56;20954;-75
2022/11/04 09:11:44;;;;;;;3.35;0.68;;;14.30;73.80;;;;;;2284180;55;20954;-75
2022/11/04 09:14:11;;;;;;;4.20;1.15;;;14.30;73.80;;;;;;2313602;55;21018;-75
2022/11/04 09:16:38;;;;;;;2.72;0.90;;;14.40;73.90;;;;;;2310089;55;21007;-75
2022/11/04 09:19:06;;;;;;;2.15;0.75;;;14.40;73.80;;;;;;2267479;55;21572;-76
2022/11/04 09:21:32;;;;;;;2.87;1.00;;;14.40;73.80;;;;;;2290389;55;21014;-75
2022/11/04 09:23:59;;;;;;;2.53;1.12;;;14.40;73.80;;;;;;2408599;54;21046;-75
2022/11/04 09:26:25;;;;;;;2.65;0.85;;;14.50;73.80;;;;;;2495867;54;21600;-75
2022/11/04 09:28:55;;;;;;;2.00;0.60;;;14.50;73.90;;;;;;2377156;54;21113;-76
2022/11/04 09:31:21;;;;;;;1.73;0.50;;;14.50;73.90;;;;;;2266837;55;21048;-75
2022/11/04 09:33:49;;;;;;;2.17;0.60;;;14.50;74.00;;;;;;2386522;55;21462;-76
2022/11/04 09:36:15;;;;;;;2.78;0.62;;;14.60;74.10;;;;;;2517605;54;21064;-75
2022/11/04 09:38:41;;;;;;;2.37;0.68;;;14.60;74.20;;;;;;2289379;55;21050;-75
2022/11/04 09:48:06;;;;;;;3.45;0.62;;;14.70;74.00;;;;;;2348207;55;21418;-75
2022/11/04 09:50:46;;;;;;;2.65;0.52;;;14.70;73.50;;;;;;2289415;55;20994;-76
2022/11/04 09:53:57;;;;;;;1.75;0.40;;;14.90;73.50;;;;;;2510071;54;21597;-75
2022/11/04 09:56:34;;;;;;;2.90;0.80;;;14.90;72.60;;;;;;2263068;55;21071;-75
2022/11/04 09:59:04;;;;;;;2.20;0.62;;;14.90;73.30;;;;;;2450508;54;21071;-77
2022/11/04 10:03:03;;;;;;;2.78;0.55;;;14.90;73.40;;;;;;2333711;54;21539;-75
2022/11/04 10:06:06;;;;;;;2.92;0.60;;;15.00;72.10;;;;;;2351291;54;21074;-77
2022/11/04 10:08:48;;;;;;;2.22;0.60;;;15.00;72.60;;;;;;2272759;55;21026;-77
2022/11/04 10:13:10;;;;;;;0.90;0.32;;;15.00;73.00;;;;;;2257539;55;20974;-77
2022/11/04 10:16:07;;;;;;;1.60;0.40;;;15.10;71.80;;;;;;2517809;54;20950;-76
2022/11/04 10:21:44;;;;;;;2.08;0.37;;;15.10;72.20;;;;;;2327963;54;21318;-77
2022/11/04 10:25:05;;;;;;;5.00;2.25;;;15.10;71.70;;;;;;2356864;55;21042;-75
2022/11/04 10:27:34;;;;;;;13.65;6.55;;;15.20;72.10;;;;;;2482779;55;20971;-75
2022/11/04 10:30:02;;;;;;;15.07;7.70;;;15.10;72.80;;;;;;2312269;55;21475;-75
2022/11/04 10:32:39;;;;;;;12.65;6.47;;;15.10;73.00;;;;;;2291322;54;21641;-73
2022/11/04 10:35:50;;;;;;;7.72;3.50;;;15.20;72.80;;;;;;2287943;55;20950;-75
2022/11/04 10:39:03;;;;;;;5.05;1.85;;;15.20;71.90;;;;;;2280387;55;21460;-75
2022/11/04 10:41:33;;;;;;;3.55;1.30;;;15.20;72.00;;;;;;2280657;55;20975;-73
2022/11/04 10:44:06;;;;;;;2.42;0.80;;;15.20;73.00;;;;;;2283544;55;21752;-74
2022/11/04 10:48:27;;;;;;;1.50;0.57;;;15.30;73.00;;;;;;2260389;55;21034;-75
2022/11/04 10:50:54;;;;;;;1.42;0.47;;;15.30;72.50;;;;;;2515597;54;21026;-75
2022/11/04 10:53:28;;;;;;;2.25;0.37;;;15.40;73.30;;;;;;2303179;55;21045;-75
2022/11/04 10:56:09;;;;;;;0.88;0.25;;;15.40;73.00;;;;;;2375831;55;21805;-75
2022/11/04 10:58:41;;;;;;;1.60;0.30;;;15.40;72.80;;;;;;2282764;55;20963;-75
2022/11/04 11:02:42;;;;;;;2.50;0.43;;;15.50;73.20;;;;;;2484583;55;20982;-75
2022/11/04 11:05:22;;;;;;;1.35;0.47;;;15.50;72.00;;;;;;2261019;55;21159;-75
2022/11/04 11:07:51;;;;;;;2.33;0.43;;;15.50;72.60;;;;;;2372611;55;21003;-74
2022/11/04 11:10:31;;;;;;;1.25;0.50;;;15.60;73.10;;;;;;2270584;55;20980;-73
2022/11/04 11:13:02;;;;;;;2.12;0.52;;;15.60;72.30;;;;;;2355577;55;21678;-75
2022/11/04 11:15:36;;;;;;;1.27;0.40;;;15.60;72.80;;;;;;2267595;55;20984;-73
2022/11/04 11:18:16;;;;;;;1.48;0.35;;;15.60;72.30;;;;;;2300344;55;21444;-74
2022/11/04 11:21:02;;;;;;;3.28;0.50;;;15.60;71.90;;;;;;2351237;55;20992;-73
2022/11/04 11:23:40;;;;;;;1.05;0.40;;;15.60;72.10;;;;;;2499945;54;21105;-74
2022/11/04 11:26:09;;;;;;;2.35;0.70;;;15.70;71.70;;;;;;2256368;56;21015;-74
2022/11/04 11:28:39;;;;;;;1.37;0.37;;;15.70;72.40;;;;;;2282626;55;20941;-73
2022/11/04 11:31:10;;;;;;;2.45;0.82;;;15.70;72.40;;;;;;2253624;56;21864;-75
2022/11/04 11:33:39;;;;;;;2.53;0.62;;;15.70;72.50;;;;;;2253392;55;20966;-75
2022/11/04 11:36:14;;;;;;;2.17;0.40;;;15.70;72.50;;;;;;2498833;54;20986;-73
2022/11/04 11:39:02;;;;;;;1.40;0.40;;;15.80;72.60;;;;;;2355928;54;21005;-74
2022/11/04 11:41:31;;;;;;;1.92;0.30;;;15.80;71.60;;;;;;2216164;57;21009;-74
2022/11/04 11:44:00;;;;;;;4.12;0.95;;;15.80;72.60;;;;;;2235822;57;20961;-75
2022/11/04 11:46:31;;;;;;;3.28;0.90;;;15.80;72.30;;;;;;2365531;55;20982;-74
2022/11/04 11:49:01;;;;;;;2.58;0.60;;;15.90;72.10;;;;;;2327681;55;21951;-75
2022/11/04 11:51:36;;;;;;;1.17;0.45;;;15.90;72.20;;;;;;2235088;57;21553;-73
2022/11/04 11:54:45;;;;;;;2.08;0.37;;;15.90;71.80;;;;;;2362229;55;21062;-73
2022/11/04 11:57:39;;;;;;;1.27;0.40;;;15.90;70.70;;;;;;2249520;56;21436;-74
2022/11/04 12:00:09;;;;;;;2.72;0.75;;;15.90;71.60;;;;;;2229830;57;20950;-73
2022/11/04 12:03:16;;;;;;;1.75;0.55;;;15.90;72.00;;;;;;2296017;55;21506;-74
2022/11/04 12:07:32;;;;;;;1.85;0.60;;;15.90;71.50;;;;;;2416199;55;21551;-74
2022/11/04 12:10:51;;;;;;;2.40;0.68;;;16.00;70.70;;;;;;2270155;55;21043;-75
2022/11/04 12:13:31;;;;;;;1.73;0.55;;;16.00;71.40;;;;;;2473277;55;20983;-75
2022/11/04 12:19:39;;;;;;;3.03;0.70;;;16.00;71.40;;;;;;2268616;55;21118;-76
2022/11/04 12:24:19;;;;;;;1.15;0.35;;;16.10;70.70;;;;;;2446216;55;21042;-75
2022/11/04 12:30:29;;;;;;;1.15;0.43;;;16.10;70.50;;;;;;2286557;55;21055;-74
2022/11/04 12:34:08;;;;;;;3.08;0.57;;;16.10;71.20;;;;;;2285331;55;21400;-73
2022/11/04 12:36:52;;;;;;;1.58;0.60;;;16.00;71.60;;;;;;2325509;54;21106;-73
2022/11/04 12:40:03;;;;;;;2.55;0.80;;;16.10;71.50;;;;;;2276196;55;21062;-73
2022/11/04 12:44:29;;;;;;;2.50;0.82;;;16.10;71.50;;;;;;2261536;55;21045;-75
2022/11/04 12:47:11;;;;;;;2.05;0.60;;;16.10;70.90;;;;;;2306097;55;21402;-75
2022/11/04 12:53:16;;;;;;;2.15;0.50;;;16.10;71.60;;;;;;2303705;54;21593;-74
2022/11/04 12:56:26;;;;;;;1.62;0.50;;;16.10;71.20;;;;;;2333420;54;21123;-73
2022/11/04 13:00:42;;;;;;;1.98;0.60;;;16.10;71.30;;;;;;2273482;55;21460;-74
2022/11/04 13:03:25;;;;;;;2.28;0.73;;;16.10;71.70;;;;;;2281759;55;21424;-74
2022/11/04 13:05:55;;;;;;;2.28;0.60;;;16.20;72.10;;;;;;2274581;55;21496;-75
2022/11/04 13:08:30;;;;;;;2.58;1.10;;;16.20;72.50;;;;;;2353481;55;21042;-73
2022/11/04 13:15:47;;;;;;;6.65;3.60;;;16.20;72.30;;;;;;2256416;55;21382;-74
2022/11/04 13:18:17;;;;;;;3.42;1.35;;;16.30;71.30;;;;;;2339452;55;20976;-75
2022/11/04 13:21:44;;;;;;;2.15;0.80;;;16.30;72.60;;;;;;2297423;55;21076;-74
2022/11/04 13:24:24;;;;;;;2.00;0.80;;;16.40;71.50;;;;;;2274270;55;21232;-74
2022/11/04 13:26:50;;;;;;;1.50;0.52;;;16.40;72.60;;;;;;2262008;55;20946;-75
2022/11/04 13:29:20;;;;;;;3.35;0.68;;;16.40;72.90;;;;;;2350662;54;20970;-74
2022/11/04 13:32:15;;;;;;;2.78;0.90;;;16.40;72.80;;;;;;2266123;55;20981;-73
2022/11/04 13:35:19;;;;;;;1.80;0.60;;;16.40;72.00;;;;;;2271986;55;21063;-75
2022/11/04 13:38:13;;;;;;;1.40;0.55;;;16.50;71.40;;;;;;2257493;55;21069;-75
2022/11/04 13:43:54;;;;;;;2.97;0.62;;;16.50;71.30;;;;;;2282870;55;20982;-74
2022/11/04 13:46:27;;;;;;;2.22;0.55;;;16.60;71.20;;;;;;2284184;55;21805;-74
2022/11/04 13:49:13;;;;;;;2.37;0.60;;;16.60;72.60;;;;;;2284808;55;21081;-73
2022/11/04 13:51:44;;;;;;;2.85;0.60;;;16.60;72.20;;;;;;2286551;55;21023;-75
2022/11/04 13:54:40;;;;;;;3.60;1.12;;;16.60;73.00;;;;;;2356877;55;21600;-74
2022/11/04 13:57:14;;;;;;;1.85;0.55;;;16.70;72.40;;;;;;2255919;56;20997;-76
2022/11/04 13:59:40;;;;;;;1.45;0.50;;;16.70;73.40;;;;;;2248717;56;21420;-75
2022/11/04 14:04:41;;;;;;;1.98;0.43;;;16.70;73.80;;;;;;2274010;55;22639;-76
2022/11/04 14:07:09;;;;;;;1.83;0.60;;;16.80;72.50;;;;;;2280088;55;20950;-74
2022/11/04 14:09:57;;;;;;;11.93;0.80;;;16.90;73.40;;;;;;2278113;55;20962;-76
2022/11/04 14:12:31;;;;;;;1.25;0.40;;;17.00;72.20;;;;;;2281750;55;21819;-74
2022/11/04 14:15:08;;;;;;;3.72;1.42;;;17.00;72.90;;;;;;2271801;55;21309;-76
2022/11/04 14:17:57;;;;;;;3.05;1.35;;;17.10;72.80;;;;;;2325995;55;21306;-75
2022/11/04 14:20:25;;;;;;;2.60;0.90;;;17.10;72.10;;;;;;2256668;55;20976;-74
2022/11/04 14:22:56;;;;;;;3.08;1.30;;;17.10;73.20;;;;;;2272976;55;20967;-74
2022/11/04 14:25:47;;;;;;;4.95;1.77;;;17.10;73.10;;;;;;2338132;55;21022;-74
2022/11/04 14:28:18;;;;;;;1.87;0.73;;;17.10;72.50;;;;;;2264081;55;20990;-74
2022/11/04 14:31:18;;;;;;;2.20;0.73;;;17.20;72.60;;;;;;2285506;55;20973;-74
2022/11/04 14:33:52;;;;;;;4.18;2.47;;;17.20;72.80;;;;;;2283637;55;21330;-74
2022/11/04 14:36:36;;;;;;;3.67;1.67;;;17.30;72.30;;;;;;2288692;55;21371;-74
2022/11/04 14:40:05;;;;;;;2.62;1.00;;;17.30;71.70;;;;;;2326741;55;21050;-74
2022/11/04 14:43:03;;;;;;;2.95;0.70;;;17.30;70.50;;;;;;2262958;55;21094;-74
2022/11/04 14:45:32;;;;;;;1.25;0.40;;;17.30;71.10;;;;;;2268983;55;21014;-74
2022/11/04 14:48:14;;;;;;;1.62;0.47;;;17.30;71.80;;;;;;2269759;55;20995;-74
2022/11/04 14:50:42;;;;;;;2.62;0.50;;;17.30;71.10;;;;;;2265024;55;21093;-74
2022/11/04 14:53:20;;;;;;;1.30;0.40;;;17.20;71.70;;;;;;2267275;55;21562;-74
2022/11/04 14:55:46;;;;;;;2.37;0.57;;;17.20;71.60;;;;;;2266995;55;21605;-74